sensor_id;sensor_type;location;lat;lon;timestamp;P1;durP1;ratioP1;P2;durP2;ratioP2
53670;SDS011;39571;48.612;8.088;2022-11-23T09:10:58;15.10;;;10.77;;
53670;SDS011;39571;48.612;8.088;2022-11-23T09:13:25;11.20;;;7.68;;
53670;SDS011;39571;48.612;8.088;2022-11-23T09:15:50;5.82;;;2.92;;
53670;SDS011;39571;48.612;8.088;2022-11-23T09:18:15;6.53;;;2.20;;
53670;SDS011;39571;48.612;8.088;2022-11-23T09:20:41;6.65;;;2.67;;
53670;SDS011;39571;48.612;8.088;2022-11-23T09:23:06;5.63;;;1.60;;
53670;SDS011;39571;48.612;8.088;2022-11-23T09:25:33;5.05;;;2.10;;
53670;SDS011;39571;48.612;8.088;2022-11-23T09:27:58;3.72;;;2.03;;
53670;SDS011;39571;48.612;8.088;2022-11-23T09:30:24;6.97;;;2.67;;
53670;SDS011;39571;48.612;8.088;2022-11-23T09:32:51;5.95;;;1.73;;
53670;SDS011;39571;48.612;8.088;2022-11-23T09:35:16;6.07;;;2.55;;
53670;SDS011;39571;48.612;8.088;2022-11-23T09:37:42;7.47;;;2.40;;
53670;SDS011;39571;48.612;8.088;2022-11-23T09:40:08;6.38;;;1.70;;
53670;SDS011;39571;48.612;8.088;2022-11-23T09:42:44;4.00;;;1.20;;
53670;SDS011;39571;48.612;8.088;2022-11-23T09:45:22;5.90;;;1.33;;
53670;SDS011;39571;48.612;8.088;2022-11-23T09:48:09;5.00;;;1.27;;
53670;SDS011;39571;48.612;8.088;2022-11-23T09:50:48;2.70;;;0.95;;
53670;SDS011;39571;48.612;8.088;2022-11-23T09:53:31;5.60;;;0.88;;
53670;SDS011;39571;48.612;8.088;2022-11-23T09:55:58;4.00;;;1.17;;
53670;SDS011;39571;48.612;8.088;2022-11-23T09:58:26;3.25;;;0.95;;
53670;SDS011;39571;48.612;8.088;2022-11-23T10:01:01;4.88;;;1.58;;
53670;SDS011;39571;48.612;8.088;2022-11-23T10:03:39;4.15;;;1.23;;
53670;SDS011;39571;48.612;8.088;2022-11-23T10:26:11;4.47;;;1.98;;
53670;SDS011;39571;48.612;8.088;2022-11-23T10:28:39;6.80;;;2.30;;
53670;SDS011;39571;48.612;8.088;2022-11-23T10:31:15;4.63;;;1.98;;
53670;SDS011;39571;48.612;8.088;2022-11-23T10:36:14;6.28;;;2.33;;
53670;SDS011;39571;48.612;8.088;2022-11-23T10:38:40;5.05;;;2.45;;
53670;SDS011;39571;48.612;8.088;2022-11-23T10:41:10;4.38;;;2.00;;
53670;SDS011;39571;48.612;8.088;2022-11-23T10:43:38;5.93;;;2.17;;
53670;SDS011;39571;48.612;8.088;2022-11-23T10:54:37;5.15;;;1.70;;
53670;SDS011;39571;48.612;8.088;2022-11-23T11:00:04;5.80;;;1.80;;
53670;SDS011;39571;48.612;8.088;2022-11-23T11:02:41;5.35;;;1.85;;
53670;SDS011;39571;48.612;8.088;2022-11-23T11:08:13;4.80;;;2.23;;
53670;SDS011;39571;48.612;8.088;2022-11-23T11:13:24;4.28;;;1.52;;
53670;SDS011;39571;48.612;8.088;2022-11-23T11:16:01;5.07;;;1.43;;
53670;SDS011;39571;48.612;8.088;2022-11-23T11:18:33;6.10;;;2.05;;
53670;SDS011;39571;48.612;8.088;2022-11-23T11:21:02;4.95;;;2.05;;
53670;SDS011;39571;48.612;8.088;2022-11-23T11:23:28;6.63;;;2.15;;
53670;SDS011;39571;48.612;8.088;2022-11-23T11:26:02;5.82;;;2.08;;
53670;SDS011;39571;48.612;8.088;2022-11-23T11:28:35;3.58;;;1.50;;
53670;SDS011;39571;48.612;8.088;2022-11-23T11:34:10;2.47;;;0.98;;
53670;SDS011;39571;48.612;8.088;2022-11-23T11:36:39;4.15;;;1.38;;
53670;SDS011;39571;48.612;8.088;2022-11-23T11:39:25;3.10;;;1.05;;
53670;SDS011;39571;48.612;8.088;2022-11-23T11:41:57;2.72;;;0.82;;
53670;SDS011;39571;48.612;8.088;2022-11-23T11:44:26;3.90;;;0.90;;
53670;SDS011;39571;48.612;8.088;2022-11-23T11:46:57;2.10;;;0.70;;
53670;SDS011;39571;48.612;8.088;2022-11-23T11:49:29;2.53;;;1.00;;
53670;SDS011;39571;48.612;8.088;2022-11-23T11:52:06;3.03;;;0.98;;
53670;SDS011;39571;48.612;8.088;2022-11-23T11:57:54;2.63;;;1.13;;
53670;SDS011;39571;48.612;8.088;2022-11-23T12:00:23;3.17;;;1.20;;
53670;SDS011;39571;48.612;8.088;2022-11-23T12:03:08;2.50;;;1.00;;
53670;SDS011;39571;48.612;8.088;2022-11-23T12:05:45;2.78;;;0.88;;
53670;SDS011;39571;48.612;8.088;2022-11-23T12:10:52;4.05;;;1.13;;
53670;SDS011;39571;48.612;8.088;2022-11-23T12:13:25;3.33;;;1.05;;
53670;SDS011;39571;48.612;8.088;2022-11-23T12:18:39;2.00;;;0.80;;
53670;SDS011;39571;48.612;8.088;2022-11-23T12:21:19;2.42;;;1.00;;
53670;SDS011;39571;48.612;8.088;2022-11-23T12:40:18;3.35;;;1.00;;
53670;SDS011;39571;48.612;8.088;2022-11-23T12:43:00;2.65;;;1.27;;
53670;SDS011;39571;48.612;8.088;2022-11-23T12:45:32;3.65;;;1.00;;
53670;SDS011;39571;48.612;8.088;2022-11-23T12:48:45;2.50;;;0.88;;
